Fairmont, MN

8:40 AM CDT on March 23, 2017 (GMT -0500)
Fairmont Municipal | | Change Station

Elev 1161 ft 43.64 °N, 94.42 °W | Updated 44 minutes ago

Overcast
Overcast
36 °F
Feels Like 24 °F
N
23
Wind Variable Wind from SSE

Today
High -- | Low -- °F
--% Chance of Precip.
Yesterday
High -- | Low -- °F
Precip. -- in
Pressure 30.10 in
Visibility 10.0 miles
Clouds Mostly Cloudy 3800 ft
Overcast 5000 ft
Windchill 24 °F
Dew Point 23 °F
Humidity 59%
Rainfall 0.00 in
Snow Depth Not available.
7:14 AM 7:34 PM
Waning Crescent, 23% visible
METAR KFRM 231256Z AUTO 15020KT 10SM BKN038 OVC050 02/M05 A3005 RMK AO2 SLP192 T00221050 FZRANO
Pressure 30.10 in
Visibility 10.0 miles
Clouds Mostly Cloudy 3800 ft
Overcast 5000 ft
Windchill 24 °F
Dew Point 23 °F
Humidity 59%
Rainfall 0.00 in
Snow Depth Not available.
7:14 AM 7:34 PM
Waning Crescent, 23% visible
METAR KFRM 231256Z AUTO 15020KT 10SM BKN038 OVC050 02/M05 A3005 RMK AO2 SLP192 T00221050 FZRANO

Get Severe Weather Alerts

Thanks for signing up!

Be on the lookout for a verification email in your inbox.

You'll start receiving the daily forecast at 8 AM.

×

10-Day Weather Forecast

Almanac

Astronomy

Mar. 23, 2017 Rise Set
Actual Time
Civil Twilight
Nautical Twilight
Astronomical Twilight
Moon
Length of Visible Light
Length of Day
Tomorrow will be .
, % of the Moon is Illuminated

Today's Extremes

State Highs State Lows

Community

WunderPhotos

Upload Photos

1,962,540 photos uploaded!

WunderBlog® & News

Nearby

Air Quality

  Air Quality AQ Index Pollutant
Not available.

Snow Depth

Station Depth Elevation

Earthquake Activity

City Distance Mag. Time & Date
Minimum magnitude displayed is 2.5.

Earthquake Activity

City Distance Mag. Time & Date
Minimum magnitude displayed is 2.5.

Coastal Water Temperatures

Place Temperature

Stations

Nearby Weather Stations

Station Location Temp. Windchill Dew Point Humidity Wind Precip. Elev Updated Type
                   

Watches & Warnings

There are currently no watches in effect.